sensor_id;sensor_type;location;lat;lon;timestamp;pressure;altitude;pressure_sealevel;temperature;humidity
27210;BME280;14721;42.668;23.386;2023-01-30T00:02:08;95614.22;;;0.58;84.69
27210;BME280;14721;42.668;23.386;2023-01-30T00:04:33;95617.16;;;0.49;84.85
27210;BME280;14721;42.668;23.386;2023-01-30T00:06:59;95621.34;;;0.54;83.89
27210;BME280;14721;42.668;23.386;2023-01-30T00:09:24;95610.28;;;0.45;84.13
27210;BME280;14721;42.668;23.386;2023-01-30T00:11:51;95618.13;;;0.46;84.34
27210;BME280;14721;42.668;23.386;2023-01-30T00:14:16;95620.66;;;0.49;84.99
27210;BME280;14721;42.668;23.386;2023-01-30T00:16:42;95620.59;;;0.51;85.05
27210;BME280;14721;42.668;23.386;2023-01-30T00:19:07;95625.66;;;0.57;84.96
27210;BME280;14721;42.668;23.386;2023-01-30T00:21:33;95622.59;;;0.43;84.95
27210;BME280;14721;42.668;23.386;2023-01-30T00:23:59;95622.78;;;0.37;85.44
27210;BME280;14721;42.668;23.386;2023-01-30T00:26:25;95629.66;;;0.41;85.72
27210;BME280;14721;42.668;23.386;2023-01-30T00:28:51;95619.13;;;0.41;85.65
27210;BME280;14721;42.668;23.386;2023-01-30T00:31:17;95617.91;;;0.52;85.23
27210;BME280;14721;42.668;23.386;2023-01-30T00:33:42;95624.03;;;0.53;85.05
27210;BME280;14721;42.668;23.386;2023-01-30T00:36:09;95618.94;;;0.47;85.37
27210;BME280;14721;42.668;23.386;2023-01-30T00:38:35;95622.63;;;0.41;85.55
27210;BME280;14721;42.668;23.386;2023-01-30T00:41:01;95620.28;;;0.32;85.52
27210;BME280;14721;42.668;23.386;2023-01-30T00:43:27;95613.38;;;0.30;86.03
27210;BME280;14721;42.668;23.386;2023-01-30T00:46:33;95594.25;;;0.25;86.32
27210;BME280;14721;42.668;23.386;2023-01-30T00:49:18;95604.75;;;0.25;85.98
27210;BME280;14721;42.668;23.386;2023-01-30T00:51:44;95603.97;;;0.21;86.25
27210;BME280;14721;42.668;23.386;2023-01-30T00:54:10;95597.94;;;0.19;86.39
27210;BME280;14721;42.668;23.386;2023-01-30T00:56:35;95600.69;;;0.15;86.63
27210;BME280;14721;42.668;23.386;2023-01-30T00:59:01;95606.78;;;0.15;86.46
27210;BME280;14721;42.668;23.386;2023-01-30T01:01:26;95601.75;;;0.08;86.87
27210;BME280;14721;42.668;23.386;2023-01-30T01:03:52;95613.75;;;0.18;87.01
27210;BME280;14721;42.668;23.386;2023-01-30T01:06:17;95604.16;;;0.15;87.07
27210;BME280;14721;42.668;23.386;2023-01-30T01:08:43;95603.53;;;0.07;87.75
27210;BME280;14721;42.668;23.386;2023-01-30T01:11:09;95596.50;;;0.08;87.77
27210;BME280;14721;42.668;23.386;2023-01-30T01:13:34;95603.31;;;0.15;87.73
27210;BME280;14721;42.668;23.386;2023-01-30T01:16:00;95593.78;;;0.11;87.27
27210;BME280;14721;42.668;23.386;2023-01-30T01:18:26;95600.50;;;0.21;87.15
27210;BME280;14721;42.668;23.386;2023-01-30T01:20:51;95599.50;;;0.25;87.18
27210;BME280;14721;42.668;23.386;2023-01-30T01:23:17;95585.59;;;0.21;87.11
27210;BME280;14721;42.668;23.386;2023-01-30T01:25:42;95593.69;;;0.14;87.24
27210;BME280;14721;42.668;23.386;2023-01-30T01:28:08;95584.00;;;0.16;86.96
27210;BME280;14721;42.668;23.386;2023-01-30T01:30:34;95587.47;;;0.18;87.19
27210;BME280;14721;42.668;23.386;2023-01-30T01:32:59;95586.63;;;0.16;86.94
27210;BME280;14721;42.668;23.386;2023-01-30T01:35:25;95576.41;;;0.07;86.74
27210;BME280;14721;42.668;23.386;2023-01-30T01:37:54;95580.78;;;0.06;86.88
27210;BME280;14721;42.668;23.386;2023-01-30T01:40:21;95583.38;;;0.08;87.58
27210;BME280;14721;42.668;23.386;2023-01-30T01:43:20;95583.28;;;0.11;87.53
27210;BME280;14721;42.668;23.386;2023-01-30T01:45:50;95584.28;;;0.07;87.29
27210;BME280;14721;42.668;23.386;2023-01-30T01:48:33;95581.63;;;0.08;87.70
27210;BME280;14721;42.668;23.386;2023-01-30T01:53:30;95592.25;;;0.03;86.99
27210;BME280;14721;42.668;23.386;2023-01-30T01:55:58;95577.41;;;0.03;86.59
27210;BME280;14721;42.668;23.386;2023-01-30T01:58:38;95579.03;;;0.07;86.34
27210;BME280;14721;42.668;23.386;2023-01-30T02:01:06;95585.16;;;0.07;86.37
27210;BME280;14721;42.668;23.386;2023-01-30T02:03:34;95584.19;;;0.10;86.31
27210;BME280;14721;42.668;23.386;2023-01-30T02:06:02;95588.63;;;0.08;86.08
27210;BME280;14721;42.668;23.386;2023-01-30T02:08:32;95574.59;;;0.09;86.40
27210;BME280;14721;42.668;23.386;2023-01-30T02:11:04;95591.25;;;0.08;86.18
27210;BME280;14721;42.668;23.386;2023-01-30T02:13:32;95583.50;;;0.03;86.24
27210;BME280;14721;42.668;23.386;2023-01-30T02:16:00;95587.88;;;0.04;86.47
27210;BME280;14721;42.668;23.386;2023-01-30T02:18:27;95585.06;;;0.10;86.48
27210;BME280;14721;42.668;23.386;2023-01-30T02:23:33;95583.47;;;0.04;86.13
27210;BME280;14721;42.668;23.386;2023-01-30T02:42:14;95578.13;;;0.08;86.00
27210;BME280;14721;42.668;23.386;2023-01-30T02:47:37;95555.53;;;0.02;86.32
27210;BME280;14721;42.668;23.386;2023-01-30T02:50:15;95563.13;;;0.11;86.34
27210;BME280;14721;42.668;23.386;2023-01-30T02:52:43;95563.13;;;0.11;86.18
27210;BME280;14721;42.668;23.386;2023-01-30T02:55:18;95559.53;;;0.14;86.24
27210;BME280;14721;42.668;23.386;2023-01-30T02:57:44;95564.97;;;0.08;86.18
27210;BME280;14721;42.668;23.386;2023-01-30T03:00:10;95557.75;;;0.16;86.38
27210;BME280;14721;42.668;23.386;2023-01-30T03:11:06;95564.97;;;0.08;85.93
27210;BME280;14721;42.668;23.386;2023-01-30T03:16:32;95553.09;;;-0.04;85.78
27210;BME280;14721;42.668;23.386;2023-01-30T03:19:00;95545.13;;;-0.01;86.01
27210;BME280;14721;42.668;23.386;2023-01-30T03:21:27;95545.03;;;0.02;86.28
27210;BME280;14721;42.668;23.386;2023-01-30T03:23:53;95538.00;;;0.03;85.93
27210;BME280;14721;42.668;23.386;2023-01-30T03:26:25;95539.13;;;-0.05;86.27
27210;BME280;14721;42.668;23.386;2023-01-30T03:28:52;95539.22;;;-0.08;86.34
27210;BME280;14721;42.668;23.386;2023-01-30T03:31:18;95529.72;;;-0.13;86.35
27210;BME280;14721;42.668;23.386;2023-01-30T03:33:43;95525.16;;;-0.07;86.53
27210;BME280;14721;42.668;23.386;2023-01-30T03:36:09;95522.25;;;0.03;86.59
27210;BME280;14721;42.668;23.386;2023-01-30T03:38:35;95525.75;;;0.01;85.98
27210;BME280;14721;42.668;23.386;2023-01-30T03:41:02;95530.09;;;0.04;86.41
27210;BME280;14721;42.668;23.386;2023-01-30T03:43:28;95529.22;;;0.03;85.87
27210;BME280;14721;42.668;23.386;2023-01-30T03:45:53;95528.25;;;0.06;85.95
27210;BME280;14721;42.668;23.386;2023-01-30T03:48:20;95524.16;;;-0.03;85.65
27210;BME280;14721;42.668;23.386;2023-01-30T03:50:46;95532.84;;;-0.01;86.04
27210;BME280;14721;42.668;23.386;2023-01-30T03:53:11;95530.09;;;0.04;86.30
27210;BME280;14721;42.668;23.386;2023-01-30T03:55:37;95518.66;;;0.05;86.15
27210;BME280;14721;42.668;23.386;2023-01-30T03:58:03;95519.38;;;0.10;85.98
27210;BME280;14721;42.668;23.386;2023-01-30T04:00:29;95517.03;;;0.01;86.00
27210;BME280;14721;42.668;23.386;2023-01-30T04:02:55;95523.41;;;-0.06;86.38
27210;BME280;14721;42.668;23.386;2023-01-30T04:05:22;95516.41;;;-0.07;86.62
27210;BME280;14721;42.668;23.386;2023-01-30T04:07:48;95522.53;;;-0.07;86.85
27210;BME280;14721;42.668;23.386;2023-01-30T04:10:14;95500.66;;;-0.07;86.63
27210;BME280;14721;42.668;23.386;2023-01-30T04:12:41;95524.06;;;0.00;86.16
27210;BME280;14721;42.668;23.386;2023-01-30T04:15:08;95514.66;;;-0.07;86.07
27210;BME280;14721;42.668;23.386;2023-01-30T04:17:33;95522.44;;;-0.04;85.79
27210;BME280;14721;42.668;23.386;2023-01-30T04:19:59;95510.91;;;0.00;86.14
27210;BME280;14721;42.668;23.386;2023-01-30T04:22:25;95508.09;;;0.07;86.39
27210;BME280;14721;42.668;23.386;2023-01-30T04:24:50;95515.69;;;0.16;85.78
27210;BME280;14721;42.668;23.386;2023-01-30T04:27:16;95520.31;;;0.08;84.91
27210;BME280;14721;42.668;23.386;2023-01-30T04:29:41;95524.94;;;0.01;85.05
27210;BME280;14721;42.668;23.386;2023-01-30T04:32:07;95522.94;;;0.08;85.30
27210;BME280;14721;42.668;23.386;2023-01-30T04:34:32;95515.75;;;0.14;85.26
27210;BME280;14721;42.668;23.386;2023-01-30T04:36:58;95519.78;;;0.24;85.04
27210;BME280;14721;42.668;23.386;2023-01-30T04:39:24;95524.06;;;0.28;84.69
27210;BME280;14721;42.668;23.386;2023-01-30T04:41:49;95512.97;;;0.19;85.11
27210;BME280;14721;42.668;23.386;2023-01-30T04:44:15;95515.56;;;0.20;85.14
27210;BME280;14721;42.668;23.386;2023-01-30T04:46:41;95507.78;;;0.17;84.72
27210;BME280;14721;42.668;23.386;2023-01-30T04:49:09;95509.63;;;0.14;84.88
27210;BME280;14721;42.668;23.386;2023-01-30T04:51:35;95510.69;;;0.08;85.08
27210;BME280;14721;42.668;23.386;2023-01-30T04:54:01;95498.56;;;0.04;85.46
27210;BME280;14721;42.668;23.386;2023-01-30T04:56:26;95503.47;;;-0.13;86.42
27210;BME280;14721;42.668;23.386;2023-01-30T04:58:52;95503.31;;;-0.09;86.34
27210;BME280;14721;42.668;23.386;2023-01-30T05:01:22;95492.97;;;-0.13;86.50
27210;BME280;14721;42.668;23.386;2023-01-30T05:03:52;95490.19;;;-0.09;87.22
27210;BME280;14721;42.668;23.386;2023-01-30T05:06:18;95492.81;;;-0.09;87.44
27210;BME280;14721;42.668;23.386;2023-01-30T05:08:50;95490.56;;;-0.21;87.28
27210;BME280;14721;42.668;23.386;2023-01-30T05:11:16;95488.13;;;-0.27;87.41
27210;BME280;14721;42.668;23.386;2023-01-30T05:13:42;95497.78;;;-0.27;88.14
27210;BME280;14721;42.668;23.386;2023-01-30T05:16:11;95493.94;;;-0.16;87.77
27210;BME280;14721;42.668;23.386;2023-01-30T05:18:38;95495.78;;;-0.19;87.83
27210;BME280;14721;42.668;23.386;2023-01-30T05:21:09;95502.00;;;-0.22;87.57
27210;BME280;14721;42.668;23.386;2023-01-30T05:23:35;95493.75;;;-0.10;88.06
27210;BME280;14721;42.668;23.386;2023-01-30T05:26:01;95497.31;;;-0.12;87.81
27210;BME280;14721;42.668;23.386;2023-01-30T05:28:27;95510.41;;;-0.11;87.53
27210;BME280;14721;42.668;23.386;2023-01-30T05:30:54;95512.91;;;-0.06;87.60
27210;BME280;14721;42.668;23.386;2023-01-30T05:33:20;95501.44;;;-0.04;87.41
27210;BME280;14721;42.668;23.386;2023-01-30T05:35:49;95506.59;;;-0.01;87.25
27210;BME280;14721;42.668;23.386;2023-01-30T05:38:15;95501.53;;;-0.07;87.42
27210;BME280;14721;42.668;23.386;2023-01-30T05:40:40;95500.41;;;0.00;87.52
27210;BME280;14721;42.668;23.386;2023-01-30T05:43:06;95491.75;;;-0.02;87.75
27210;BME280;14721;42.668;23.386;2023-01-30T05:45:32;95498.81;;;-0.04;87.92
27210;BME280;14721;42.668;23.386;2023-01-30T05:47:57;95505.91;;;-0.07;88.72
27210;BME280;14721;42.668;23.386;2023-01-30T05:50:23;95503.59;;;-0.18;89.09
27210;BME280;14721;42.668;23.386;2023-01-30T05:52:48;95515.94;;;-0.20;89.41
27210;BME280;14721;42.668;23.386;2023-01-30T05:55:14;95513.53;;;-0.27;90.25
27210;BME280;14721;42.668;23.386;2023-01-30T05:57:39;95512.66;;;-0.28;90.57
27210;BME280;14721;42.668;23.386;2023-01-30T06:00:06;95520.31;;;-0.20;90.82
27210;BME280;14721;42.668;23.386;2023-01-30T06:02:31;95521.91;;;-0.15;89.74
27210;BME280;14721;42.668;23.386;2023-01-30T06:04:57;95514.00;;;-0.15;89.60
27210;BME280;14721;42.668;23.386;2023-01-30T06:07:22;95519.31;;;-0.16;89.93
27210;BME280;14721;42.668;23.386;2023-01-30T06:09:48;95514.88;;;-0.14;90.21
27210;BME280;14721;42.668;23.386;2023-01-30T06:12:14;95514.97;;;-0.17;90.39
27210;BME280;14721;42.668;23.386;2023-01-30T06:14:39;95518.44;;;-0.15;90.82
27210;BME280;14721;42.668;23.386;2023-01-30T06:17:05;95518.34;;;-0.12;90.90
27210;BME280;14721;42.668;23.386;2023-01-30T06:19:30;95514.75;;;-0.10;90.88
27210;BME280;14721;42.668;23.386;2023-01-30T06:21:56;95503.41;;;-0.12;90.89
27210;BME280;14721;42.668;23.386;2023-01-30T06:24:21;95508.66;;;-0.12;91.06
27210;BME280;14721;42.668;23.386;2023-01-30T06:26:47;95505.22;;;-0.12;91.10
27210;BME280;14721;42.668;23.386;2023-01-30T06:29:13;95487.72;;;-0.13;90.89
27210;BME280;14721;42.668;23.386;2023-01-30T06:31:38;95506.13;;;-0.15;90.77
27210;BME280;14721;42.668;23.386;2023-01-30T06:34:04;95505.34;;;-0.17;90.95
27210;BME280;14721;42.668;23.386;2023-01-30T06:36:29;95507.41;;;-0.28;91.19
27210;BME280;14721;42.668;23.386;2023-01-30T06:38:55;95501.81;;;-0.16;91.30
27210;BME280;14721;42.668;23.386;2023-01-30T06:41:20;95502.59;;;-0.12;90.88
27210;BME280;14721;42.668;23.386;2023-01-30T06:43:46;95512.22;;;-0.13;91.25
27210;BME280;14721;42.668;23.386;2023-01-30T06:46:11;95504.97;;;-0.05;91.42
27210;BME280;14721;42.668;23.386;2023-01-30T06:48:37;95505.84;;;-0.06;91.58
27210;BME280;14721;42.668;23.386;2023-01-30T06:51:03;95518.09;;;-0.05;90.71
27210;BME280;14721;42.668;23.386;2023-01-30T06:53:29;95517.00;;;0.03;90.83
27210;BME280;14721;42.668;23.386;2023-01-30T06:55:59;95508.06;;;0.08;90.40
27210;BME280;14721;42.668;23.386;2023-01-30T06:58:25;95513.50;;;0.02;90.45
27210;BME280;14721;42.668;23.386;2023-01-30T07:00:51;95522.53;;;-0.07;90.59
27210;BME280;14721;42.668;23.386;2023-01-30T07:03:17;95522.53;;;-0.07;90.48
27210;BME280;14721;42.668;23.386;2023-01-30T07:05:45;95525.22;;;-0.08;90.41
27210;BME280;14721;42.668;23.386;2023-01-30T07:08:12;95521.19;;;-0.20;90.06
27210;BME280;14721;42.668;23.386;2023-01-30T07:10:39;95526.97;;;-0.09;90.26
27210;BME280;14721;42.668;23.386;2023-01-30T07:13:05;95533.72;;;0.00;90.38
27210;BME280;14721;42.668;23.386;2023-01-30T07:15:30;95520.50;;;0.01;89.84
27210;BME280;14721;42.668;23.386;2023-01-30T07:17:57;95531.97;;;-0.01;89.23
27210;BME280;14721;42.668;23.386;2023-01-30T07:20:22;95535.28;;;-0.24;88.29
27210;BME280;14721;42.668;23.386;2023-01-30T07:22:52;95529.06;;;-0.20;89.58
27210;BME280;14721;42.668;23.386;2023-01-30T07:25:19;95523.44;;;-0.08;89.65
27210;BME280;14721;42.668;23.386;2023-01-30T07:27:51;95531.69;;;-0.20;90.01
27210;BME280;14721;42.668;23.386;2023-01-30T07:30:17;95531.59;;;-0.17;90.56
27210;BME280;14721;42.668;23.386;2023-01-30T07:32:43;95535.91;;;-0.14;90.06
27210;BME280;14721;42.668;23.386;2023-01-30T07:35:09;95530.91;;;-0.23;89.63
27210;BME280;14721;42.668;23.386;2023-01-30T07:37:34;95534.19;;;-0.15;90.53
27210;BME280;14721;42.668;23.386;2023-01-30T07:39:59;95549.47;;;0.00;90.63
27210;BME280;14721;42.668;23.386;2023-01-30T07:42:25;95544.06;;;0.04;90.68
27210;BME280;14721;42.668;23.386;2023-01-30T07:44:50;95550.88;;;0.12;90.53
27210;BME280;14721;42.668;23.386;2023-01-30T07:47:16;95545.72;;;0.09;90.34
27210;BME280;14721;42.668;23.386;2023-01-30T07:49:44;95526.44;;;0.08;90.34
27210;BME280;14721;42.668;23.386;2023-01-30T07:52:09;95541.97;;;0.16;90.24
27210;BME280;14721;42.668;23.386;2023-01-30T07:54:35;95534.91;;;0.18;90.01
27210;BME280;14721;42.668;23.386;2023-01-30T07:57:00;95524.41;;;0.18;89.42
27210;BME280;14721;42.668;23.386;2023-01-30T07:59:26;95522.66;;;0.17;89.32
27210;BME280;14721;42.668;23.386;2023-01-30T08:01:52;95509.72;;;0.11;89.09
27210;BME280;14721;42.668;23.386;2023-01-30T08:04:17;95513.75;;;0.22;89.19
27210;BME280;14721;42.668;23.386;2023-01-30T08:06:43;95513.66;;;0.25;88.40
27210;BME280;14721;42.668;23.386;2023-01-30T08:09:08;95501.78;;;0.12;87.50
27210;BME280;14721;42.668;23.386;2023-01-30T08:11:34;95518.03;;;0.25;87.37
27210;BME280;14721;42.668;23.386;2023-01-30T08:13:59;95519.41;;;0.36;88.19
27210;BME280;14721;42.668;23.386;2023-01-30T08:16:25;95514.06;;;0.39;87.66
27210;BME280;14721;42.668;23.386;2023-01-30T08:18:50;95511.22;;;0.45;87.24
27210;BME280;14721;42.668;23.386;2023-01-30T08:21:16;95510.97;;;0.27;87.10
27210;BME280;14721;42.668;23.386;2023-01-30T08:23:41;95512.59;;;0.31;87.07
27210;BME280;14721;42.668;23.386;2023-01-30T08:26:06;95512.41;;;0.37;87.36
27210;BME280;14721;42.668;23.386;2023-01-30T08:28:32;95508.00;;;0.37;86.18
27210;BME280;14721;42.668;23.386;2023-01-30T08:30:58;95507.00;;;0.41;86.22
27210;BME280;14721;42.668;23.386;2023-01-30T08:33:24;95508.75;;;0.41;86.02
27210;BME280;14721;42.668;23.386;2023-01-30T08:35:50;95498.97;;;0.46;85.54
27210;BME280;14721;42.668;23.386;2023-01-30T08:38:16;95500.72;;;0.45;85.66
27210;BME280;14721;42.668;23.386;2023-01-30T08:40:41;95488.03;;;0.32;85.95
27210;BME280;14721;42.668;23.386;2023-01-30T08:43:07;95492.13;;;0.40;86.16
27210;BME280;14721;42.668;23.386;2023-01-30T08:45:33;95492.34;;;0.34;85.74
27210;BME280;14721;42.668;23.386;2023-01-30T08:48:00;95484.31;;;0.39;85.75
27210;BME280;14721;42.668;23.386;2023-01-30T08:50:25;95490.16;;;0.47;85.77
27210;BME280;14721;42.668;23.386;2023-01-30T08:52:51;95484.06;;;0.46;85.15
27210;BME280;14721;42.668;23.386;2023-01-30T08:55:16;95484.78;;;0.50;85.23
27210;BME280;14721;42.668;23.386;2023-01-30T08:57:43;95480.19;;;0.56;84.49
27210;BME280;14721;42.668;23.386;2023-01-30T09:00:09;95483.59;;;0.60;84.65
27210;BME280;14721;42.668;23.386;2023-01-30T09:02:35;95485.03;;;0.68;84.95
27210;BME280;14721;42.668;23.386;2023-01-30T09:05:00;95463.50;;;0.57;83.66
27210;BME280;14721;42.668;23.386;2023-01-30T09:07:26;95473.75;;;0.65;83.70
27210;BME280;14721;42.668;23.386;2023-01-30T09:09:53;95463.44;;;0.59;83.42
27210;BME280;14721;42.668;23.386;2023-01-30T09:12:19;95456.78;;;0.49;82.78
27210;BME280;14721;42.668;23.386;2023-01-30T09:14:45;95462.94;;;0.49;83.00
27210;BME280;14721;42.668;23.386;2023-01-30T09:17:10;95465.75;;;0.43;83.17
27210;BME280;14721;42.668;23.386;2023-01-30T09:19:36;95466.75;;;0.39;82.62
27210;BME280;14721;42.668;23.386;2023-01-30T09:22:02;95457.97;;;0.40;83.08
27210;BME280;14721;42.668;23.386;2023-01-30T09:24:27;95451.34;;;0.29;83.61
27210;BME280;14721;42.668;23.386;2023-01-30T09:26:53;95457.56;;;0.26;83.23
27210;BME280;14721;42.668;23.386;2023-01-30T09:29:22;95458.22;;;0.33;84.03
27210;BME280;14721;42.668;23.386;2023-01-30T09:31:47;95470.81;;;0.49;83.93
27210;BME280;14721;42.668;23.386;2023-01-30T09:34:13;95472.53;;;0.50;83.47
27210;BME280;14721;42.668;23.386;2023-01-30T09:36:38;95462.16;;;0.46;82.94
27210;BME280;14721;42.668;23.386;2023-01-30T09:39:04;95454.22;;;0.47;83.23
27210;BME280;14721;42.668;23.386;2023-01-30T09:55:27;95442.00;;;0.46;83.13
27210;BME280;14721;42.668;23.386;2023-01-30T09:57:56;95435.06;;;0.44;82.55
27210;BME280;14721;42.668;23.386;2023-01-30T10:00:37;95429.75;;;0.45;82.80
27210;BME280;14721;42.668;23.386;2023-01-30T10:03:19;95434.00;;;0.49;82.80
27210;BME280;14721;42.668;23.386;2023-01-30T10:05:53;95429.78;;;0.44;82.68
27210;BME280;14721;42.668;23.386;2023-01-30T10:11:08;95414.84;;;0.46;83.59
27210;BME280;14721;42.668;23.386;2023-01-30T10:19:29;95397.50;;;0.65;82.55
27210;BME280;14721;42.668;23.386;2023-01-30T10:24:51;95398.19;;;0.45;83.19
27210;BME280;14721;42.668;23.386;2023-01-30T10:27:20;95383.56;;;0.38;82.88
27210;BME280;14721;42.668;23.386;2023-01-30T10:29:50;95375.22;;;0.52;83.19
27210;BME280;14721;42.668;23.386;2023-01-30T10:32:19;95382.00;;;0.57;83.27
27210;BME280;14721;42.668;23.386;2023-01-30T10:34:53;95371.97;;;0.44;82.00
27210;BME280;14721;42.668;23.386;2023-01-30T10:37:28;95370.47;;;0.37;81.40
27210;BME280;14721;42.668;23.386;2023-01-30T10:43:43;95355.66;;;0.59;81.41
27210;BME280;14721;42.668;23.386;2023-01-30T10:48:54;95347.25;;;0.49;80.14
27210;BME280;14721;42.668;23.386;2023-01-30T10:51:37;95329.66;;;0.27;80.50
27210;BME280;14721;42.668;23.386;2023-01-30T11:02:12;95302.88;;;0.65;78.95
27210;BME280;14721;42.668;23.386;2023-01-30T11:04:55;95292.66;;;0.80;78.35
27210;BME280;14721;42.668;23.386;2023-01-30T11:07:22;95288.25;;;0.81;78.49
27210;BME280;14721;42.668;23.386;2023-01-30T11:09:48;95284.25;;;0.94;78.09
27210;BME280;14721;42.668;23.386;2023-01-30T11:12:14;95283.94;;;1.01;77.13
27210;BME280;14721;42.668;23.386;2023-01-30T11:14:57;95276.41;;;0.92;78.01
27210;BME280;14721;42.668;23.386;2023-01-30T11:17:40;95277.75;;;1.02;77.46
27210;BME280;14721;42.668;23.386;2023-01-30T11:20:15;95264.91;;;0.95;77.31
27210;BME280;14721;42.668;23.386;2023-01-30T11:22:50;95263.25;;;0.92;77.49
27210;BME280;14721;42.668;23.386;2023-01-30T11:25:21;95250.84;;;0.96;77.10
27210;BME280;14721;42.668;23.386;2023-01-30T11:27:56;95250.00;;;0.95;77.14
27210;BME280;14721;42.668;23.386;2023-01-30T11:30:30;95257.34;;;1.09;77.23
27210;BME280;14721;42.668;23.386;2023-01-30T11:33:19;95245.28;;;1.25;76.73
27210;BME280;14721;42.668;23.386;2023-01-30T11:35:58;95238.44;;;1.42;76.36
27210;BME280;14721;42.668;23.386;2023-01-30T11:38:27;95250.00;;;1.60;74.93
27210;BME280;14721;42.668;23.386;2023-01-30T11:41:06;95240.66;;;1.53;74.80
27210;BME280;14721;42.668;23.386;2023-01-30T11:43:38;95229.81;;;1.60;73.78
27210;BME280;14721;42.668;23.386;2023-01-30T11:46:08;95218.88;;;1.69;73.55
27210;BME280;14721;42.668;23.386;2023-01-30T11:48:46;95220.28;;;1.78;72.89
27210;BME280;14721;42.668;23.386;2023-01-30T11:51:13;95211.38;;;2.01;73.25
27210;BME280;14721;42.668;23.386;2023-01-30T11:53:46;95197.34;;;2.00;72.15
27210;BME280;14721;42.668;23.386;2023-01-30T11:56:34;95198.53;;;1.93;71.89
27210;BME280;14721;42.668;23.386;2023-01-30T11:59:04;95194.34;;;1.89;72.43
27210;BME280;14721;42.668;23.386;2023-01-30T12:01:33;95182.88;;;1.90;72.15
27210;BME280;14721;42.668;23.386;2023-01-30T12:04:00;95184.16;;;2.00;72.54
27210;BME280;14721;42.668;23.386;2023-01-30T12:06:32;95179.75;;;1.80;72.54
27210;BME280;14721;42.668;23.386;2023-01-30T12:08:58;95164.28;;;1.73;73.52
27210;BME280;14721;42.668;23.386;2023-01-30T12:11:28;95165.88;;;1.97;72.25
27210;BME280;14721;42.668;23.386;2023-01-30T12:14:04;95144.91;;;1.94;71.38
27210;BME280;14721;42.668;23.386;2023-01-30T12:16:51;95155.47;;;1.94;71.11
27210;BME280;14721;42.668;23.386;2023-01-30T12:19:44;95147.88;;;1.86;71.46
27210;BME280;14721;42.668;23.386;2023-01-30T12:22:23;95156.66;;;1.67;71.00
27210;BME280;14721;42.668;23.386;2023-01-30T12:24:57;95150.81;;;1.60;71.69
27210;BME280;14721;42.668;23.386;2023-01-30T12:30:38;95138.28;;;1.85;71.22
27210;BME280;14721;42.668;23.386;2023-01-30T12:33:11;95132.28;;;1.82;70.87
27210;BME280;14721;42.668;23.386;2023-01-30T12:40:49;95121.59;;;2.05;70.12
27210;BME280;14721;42.668;23.386;2023-01-30T12:45:54;95123.97;;;2.11;69.87
27210;BME280;14721;42.668;23.386;2023-01-30T12:48:35;95118.09;;;2.05;69.17
27210;BME280;14721;42.668;23.386;2023-01-30T12:51:24;95115.50;;;1.84;69.23
27210;BME280;14721;42.668;23.386;2023-01-30T12:54:12;95105.88;;;1.83;69.93
27210;BME280;14721;42.668;23.386;2023-01-30T13:12:34;95098.84;;;1.64;71.06
27210;BME280;14721;42.668;23.386;2023-01-30T13:26:23;95078.06;;;1.58;71.83
27210;BME280;14721;42.668;23.386;2023-01-30T13:29:00;95071.53;;;1.66;72.51
27210;BME280;14721;42.668;23.386;2023-01-30T13:31:31;95068.97;;;1.65;71.94
27210;BME280;14721;42.668;23.386;2023-01-30T13:34:10;95069.38;;;1.56;71.15
27210;BME280;14721;42.668;23.386;2023-01-30T13:39:13;95069.13;;;1.62;71.09
27210;BME280;14721;42.668;23.386;2023-01-30T13:41:45;95066.41;;;1.63;71.14
27210;BME280;14721;42.668;23.386;2023-01-30T13:44:39;95057.66;;;1.63;70.69
27210;BME280;14721;42.668;23.386;2023-01-30T13:53:10;95051.25;;;1.68;71.37
27210;BME280;14721;42.668;23.386;2023-01-30T13:55:57;95061.50;;;1.74;70.76
27210;BME280;14721;42.668;23.386;2023-01-30T14:01:08;95059.41;;;1.62;70.55
27210;BME280;14721;42.668;23.386;2023-01-30T14:03:34;95058.44;;;1.65;70.55
27210;BME280;14721;42.668;23.386;2023-01-30T14:06:01;95056.28;;;1.54;70.49
27210;BME280;14721;42.668;23.386;2023-01-30T14:08:32;95046.84;;;1.49;71.16
27210;BME280;14721;42.668;23.386;2023-01-30T14:11:00;95051.56;;;1.42;71.58
27210;BME280;14721;42.668;23.386;2023-01-30T14:13:26;95056.63;;;1.27;71.04
27210;BME280;14721;42.668;23.386;2023-01-30T14:15:58;95055.09;;;1.21;71.52
27210;BME280;14721;42.668;23.386;2023-01-30T14:18:33;95047.34;;;1.18;71.41
27210;BME280;14721;42.668;23.386;2023-01-30T14:21:20;95052.81;;;1.14;71.79
27210;BME280;14721;42.668;23.386;2023-01-30T14:23:57;95050.44;;;1.08;72.10
27210;BME280;14721;42.668;23.386;2023-01-30T14:39:59;95049.38;;;0.70;73.57
27210;BME280;14721;42.668;23.386;2023-01-30T14:42:28;95037.44;;;0.62;73.55
27210;BME280;14721;42.668;23.386;2023-01-30T14:54:01;95031.84;;;0.49;74.58
27210;BME280;14721;42.668;23.386;2023-01-30T14:59:05;95041.63;;;0.46;75.14
27210;BME280;14721;42.668;23.386;2023-01-30T15:04:23;95033.75;;;0.46;75.17
27210;BME280;14721;42.668;23.386;2023-01-30T15:06:50;95028.78;;;0.38;74.95
27210;BME280;14721;42.668;23.386;2023-01-30T15:09:22;95033.94;;;0.41;76.19
27210;BME280;14721;42.668;23.386;2023-01-30T15:12:14;95030.59;;;0.36;75.96
27210;BME280;14721;42.668;23.386;2023-01-30T15:20:34;95042.97;;;0.34;76.56
27210;BME280;14721;42.668;23.386;2023-01-30T15:23:13;95033.72;;;0.24;76.52
27210;BME280;14721;42.668;23.386;2023-01-30T15:33:44;95033.59;;;0.06;77.03
27210;BME280;14721;42.668;23.386;2023-01-30T15:36:27;95040.63;;;0.05;77.89
27210;BME280;14721;42.668;23.386;2023-01-30T15:39:19;95044.09;;;0.06;77.66
27210;BME280;14721;42.668;23.386;2023-01-30T15:41:45;95040.00;;;-0.02;77.56
27210;BME280;14721;42.668;23.386;2023-01-30T15:47:07;95044.56;;;-0.07;77.94
27210;BME280;14721;42.668;23.386;2023-01-30T15:49:54;95043.81;;;-0.10;78.08
27210;BME280;14721;42.668;23.386;2023-01-30T15:52:27;95030.75;;;-0.12;78.28
27210;BME280;14721;42.668;23.386;2023-01-30T15:54:58;95042.34;;;-0.17;78.33
27210;BME280;14721;42.668;23.386;2023-01-30T15:57:26;95031.91;;;-0.19;78.18